sensor_id;sensor_type;location;lat;lon;timestamp;temperature;humidity
9925;DHT22;5001;51.674;7.868;2024-01-07T00:02:15;1.80;99.90
9925;DHT22;5001;51.674;7.868;2024-01-07T00:04:42;1.90;99.90
9925;DHT22;5001;51.674;7.868;2024-01-07T00:07:10;1.80;99.90
9925;DHT22;5001;51.674;7.868;2024-01-07T00:09:38;1.90;99.90
9925;DHT22;5001;51.674;7.868;2024-01-07T00:12:06;1.80;99.90
9925;DHT22;5001;51.674;7.868;2024-01-07T00:14:33;1.80;99.90
9925;DHT22;5001;51.674;7.868;2024-01-07T00:17:00;1.80;99.90
9925;DHT22;5001;51.674;7.868;2024-01-07T00:19:27;1.70;99.90
9925;DHT22;5001;51.674;7.868;2024-01-07T00:21:59;1.80;99.90
9925;DHT22;5001;51.674;7.868;2024-01-07T00:24:32;1.80;99.90
9925;DHT22;5001;51.674;7.868;2024-01-07T00:26:59;1.90;99.90
9925;DHT22;5001;51.674;7.868;2024-01-07T00:29:26;1.80;99.90
9925;DHT22;5001;51.674;7.868;2024-01-07T00:31:53;1.80;99.90
9925;DHT22;5001;51.674;7.868;2024-01-07T00:34:20;1.80;99.90
9925;DHT22;5001;51.674;7.868;2024-01-07T00:36:47;1.80;99.90
9925;DHT22;5001;51.674;7.868;2024-01-07T00:39:14;1.80;99.90
9925;DHT22;5001;51.674;7.868;2024-01-07T00:41:41;1.80;99.90
9925;DHT22;5001;51.674;7.868;2024-01-07T00:44:07;1.80;99.90
9925;DHT22;5001;51.674;7.868;2024-01-07T00:46:34;1.80;99.90
9925;DHT22;5001;51.674;7.868;2024-01-07T00:49:02;1.80;99.90
9925;DHT22;5001;51.674;7.868;2024-01-07T00:51:29;1.80;99.90
9925;DHT22;5001;51.674;7.868;2024-01-07T00:53:56;1.80;99.90
9925;DHT22;5001;51.674;7.868;2024-01-07T00:56:26;1.70;99.90
9925;DHT22;5001;51.674;7.868;2024-01-07T00:58:53;1.70;99.90
9925;DHT22;5001;51.674;7.868;2024-01-07T01:01:21;1.60;99.90
9925;DHT22;5001;51.674;7.868;2024-01-07T01:03:48;1.60;99.90
9925;DHT22;5001;51.674;7.868;2024-01-07T01:06:16;1.60;99.90
9925;DHT22;5001;51.674;7.868;2024-01-07T01:08:43;1.60;99.90
9925;DHT22;5001;51.674;7.868;2024-01-07T01:11:10;1.60;99.90
9925;DHT22;5001;51.674;7.868;2024-01-07T01:13:37;1.60;99.90
9925;DHT22;5001;51.674;7.868;2024-01-07T01:16:04;1.60;99.90
9925;DHT22;5001;51.674;7.868;2024-01-07T01:18:31;1.50;99.90
9925;DHT22;5001;51.674;7.868;2024-01-07T01:20:58;1.60;99.90
9925;DHT22;5001;51.674;7.868;2024-01-07T01:23:25;1.60;99.90
9925;DHT22;5001;51.674;7.868;2024-01-07T01:25:52;1.60;99.90
9925;DHT22;5001;51.674;7.868;2024-01-07T01:28:19;1.60;99.90
9925;DHT22;5001;51.674;7.868;2024-01-07T01:30:46;1.60;99.90
9925;DHT22;5001;51.674;7.868;2024-01-07T01:33:13;1.60;99.90
9925;DHT22;5001;51.674;7.868;2024-01-07T01:35:40;1.70;99.90
9925;DHT22;5001;51.674;7.868;2024-01-07T01:38:07;1.70;99.90
9925;DHT22;5001;51.674;7.868;2024-01-07T01:40:34;1.70;99.90
9925;DHT22;5001;51.674;7.868;2024-01-07T01:43:04;1.60;99.90
9925;DHT22;5001;51.674;7.868;2024-01-07T01:45:31;1.60;99.90
9925;DHT22;5001;51.674;7.868;2024-01-07T01:47:59;1.50;99.90
9925;DHT22;5001;51.674;7.868;2024-01-07T01:50:26;1.60;99.90
9925;DHT22;5001;51.674;7.868;2024-01-07T01:52:54;1.60;99.90
9925;DHT22;5001;51.674;7.868;2024-01-07T01:55:23;1.60;99.90
9925;DHT22;5001;51.674;7.868;2024-01-07T01:57:50;1.60;99.90
9925;DHT22;5001;51.674;7.868;2024-01-07T02:00:18;1.70;99.90
9925;DHT22;5001;51.674;7.868;2024-01-07T02:02:45;1.60;99.90
9925;DHT22;5001;51.674;7.868;2024-01-07T02:05:13;1.60;99.90
9925;DHT22;5001;51.674;7.868;2024-01-07T02:07:41;1.60;99.90
9925;DHT22;5001;51.674;7.868;2024-01-07T02:10:08;1.60;99.90
9925;DHT22;5001;51.674;7.868;2024-01-07T02:12:36;1.60;99.90
9925;DHT22;5001;51.674;7.868;2024-01-07T02:15:04;1.50;99.90
9925;DHT22;5001;51.674;7.868;2024-01-07T02:17:31;1.50;99.90
9925;DHT22;5001;51.674;7.868;2024-01-07T02:19:58;1.50;99.90
9925;DHT22;5001;51.674;7.868;2024-01-07T02:22:25;1.50;99.90
9925;DHT22;5001;51.674;7.868;2024-01-07T02:24:52;1.40;99.90
9925;DHT22;5001;51.674;7.868;2024-01-07T02:27:19;1.40;99.90
9925;DHT22;5001;51.674;7.868;2024-01-07T02:29:46;1.40;99.90
9925;DHT22;5001;51.674;7.868;2024-01-07T02:32:13;1.40;99.90
9925;DHT22;5001;51.674;7.868;2024-01-07T02:34:40;1.40;99.90
9925;DHT22;5001;51.674;7.868;2024-01-07T02:37:07;1.40;99.90
9925;DHT22;5001;51.674;7.868;2024-01-07T02:39:34;1.40;99.90
9925;DHT22;5001;51.674;7.868;2024-01-07T02:42:01;1.40;99.90
9925;DHT22;5001;51.674;7.868;2024-01-07T02:44:28;1.30;99.90
9925;DHT22;5001;51.674;7.868;2024-01-07T02:46:55;1.30;99.90
9925;DHT22;5001;51.674;7.868;2024-01-07T02:49:22;1.30;99.90
9925;DHT22;5001;51.674;7.868;2024-01-07T02:51:49;1.30;99.90
9925;DHT22;5001;51.674;7.868;2024-01-07T02:54:17;1.40;99.90
9925;DHT22;5001;51.674;7.868;2024-01-07T02:56:44;1.40;99.90
9925;DHT22;5001;51.674;7.868;2024-01-07T02:59:11;1.40;99.90
9925;DHT22;5001;51.674;7.868;2024-01-07T03:05:40;1.30;99.90
9925;DHT22;5001;51.674;7.868;2024-01-07T03:08:07;1.30;99.90
9925;DHT22;5001;51.674;7.868;2024-01-07T03:10:34;1.30;99.90
9925;DHT22;5001;51.674;7.868;2024-01-07T03:13:01;1.40;99.90
9925;DHT22;5001;51.674;7.868;2024-01-07T03:15:29;1.40;99.90
9925;DHT22;5001;51.674;7.868;2024-01-07T03:17:57;1.40;99.90
9925;DHT22;5001;51.674;7.868;2024-01-07T03:20:24;1.30;99.90
9925;DHT22;5001;51.674;7.868;2024-01-07T03:22:51;1.40;99.90
9925;DHT22;5001;51.674;7.868;2024-01-07T03:25:18;1.30;99.90
9925;DHT22;5001;51.674;7.868;2024-01-07T03:27:46;1.30;99.90
9925;DHT22;5001;51.674;7.868;2024-01-07T03:30:12;1.30;99.90
9925;DHT22;5001;51.674;7.868;2024-01-07T03:32:39;1.30;99.90
9925;DHT22;5001;51.674;7.868;2024-01-07T03:35:07;1.30;99.90
9925;DHT22;5001;51.674;7.868;2024-01-07T03:37:35;1.20;99.90
9925;DHT22;5001;51.674;7.868;2024-01-07T03:40:03;1.20;99.90
9925;DHT22;5001;51.674;7.868;2024-01-07T03:42:30;1.20;99.90
9925;DHT22;5001;51.674;7.868;2024-01-07T03:44:57;1.30;99.90
9925;DHT22;5001;51.674;7.868;2024-01-07T03:47:24;1.30;99.90
9925;DHT22;5001;51.674;7.868;2024-01-07T03:49:52;1.30;99.90
9925;DHT22;5001;51.674;7.868;2024-01-07T03:52:18;1.30;99.90
9925;DHT22;5001;51.674;7.868;2024-01-07T03:54:45;1.30;99.90
9925;DHT22;5001;51.674;7.868;2024-01-07T03:57:13;1.30;99.90
9925;DHT22;5001;51.674;7.868;2024-01-07T03:59:40;1.30;99.90
9925;DHT22;5001;51.674;7.868;2024-01-07T04:02:07;1.20;99.90
9925;DHT22;5001;51.674;7.868;2024-01-07T04:04:33;1.20;99.90
9925;DHT22;5001;51.674;7.868;2024-01-07T04:07:01;1.10;99.90
9925;DHT22;5001;51.674;7.868;2024-01-07T04:09:28;1.10;99.90
9925;DHT22;5001;51.674;7.868;2024-01-07T04:11:55;1.10;99.90
9925;DHT22;5001;51.674;7.868;2024-01-07T04:14:21;1.10;99.90
9925;DHT22;5001;51.674;7.868;2024-01-07T04:16:48;1.10;99.90
9925;DHT22;5001;51.674;7.868;2024-01-07T04:19:15;1.10;99.90
9925;DHT22;5001;51.674;7.868;2024-01-07T04:21:46;1.10;99.90
9925;DHT22;5001;51.674;7.868;2024-01-07T04:24:13;1.10;99.90
9925;DHT22;5001;51.674;7.868;2024-01-07T04:26:40;1.10;99.90
9925;DHT22;5001;51.674;7.868;2024-01-07T04:29:07;1.10;99.90
9925;DHT22;5001;51.674;7.868;2024-01-07T04:31:34;1.10;99.90
9925;DHT22;5001;51.674;7.868;2024-01-07T04:34:01;1.10;99.90
9925;DHT22;5001;51.674;7.868;2024-01-07T04:36:29;1.10;99.90
9925;DHT22;5001;51.674;7.868;2024-01-07T04:38:56;1.10;99.90
9925;DHT22;5001;51.674;7.868;2024-01-07T04:41:24;1.10;99.90
9925;DHT22;5001;51.674;7.868;2024-01-07T04:43:51;1.10;99.90
9925;DHT22;5001;51.674;7.868;2024-01-07T04:46:19;1.10;99.90
9925;DHT22;5001;51.674;7.868;2024-01-07T04:48:45;1.10;99.90
9925;DHT22;5001;51.674;7.868;2024-01-07T04:51:13;1.10;99.90
9925;DHT22;5001;51.674;7.868;2024-01-07T04:53:40;1.10;99.90
9925;DHT22;5001;51.674;7.868;2024-01-07T04:56:07;1.00;99.90
9925;DHT22;5001;51.674;7.868;2024-01-07T04:58:34;1.00;99.90
9925;DHT22;5001;51.674;7.868;2024-01-07T05:01:01;1.00;99.90
9925;DHT22;5001;51.674;7.868;2024-01-07T05:03:28;1.00;99.90
9925;DHT22;5001;51.674;7.868;2024-01-07T05:05:55;1.00;99.90
9925;DHT22;5001;51.674;7.868;2024-01-07T05:08:22;1.00;99.90
9925;DHT22;5001;51.674;7.868;2024-01-07T05:10:52;1.00;99.90
9925;DHT22;5001;51.674;7.868;2024-01-07T05:13:19;1.00;99.90
9925;DHT22;5001;51.674;7.868;2024-01-07T05:15:46;1.00;99.90
9925;DHT22;5001;51.674;7.868;2024-01-07T05:18:23;1.00;99.90
9925;DHT22;5001;51.674;7.868;2024-01-07T05:20:52;1.00;99.90
9925;DHT22;5001;51.674;7.868;2024-01-07T05:23:19;0.90;99.90
9925;DHT22;5001;51.674;7.868;2024-01-07T05:25:46;0.90;99.90
9925;DHT22;5001;51.674;7.868;2024-01-07T05:28:13;0.90;99.90
9925;DHT22;5001;51.674;7.868;2024-01-07T05:30:43;1.00;99.90
9925;DHT22;5001;51.674;7.868;2024-01-07T05:33:10;0.90;99.90
9925;DHT22;5001;51.674;7.868;2024-01-07T05:35:37;0.90;99.90
9925;DHT22;5001;51.674;7.868;2024-01-07T05:38:05;0.90;99.90
9925;DHT22;5001;51.674;7.868;2024-01-07T05:40:32;0.90;99.90
9925;DHT22;5001;51.674;7.868;2024-01-07T05:42:58;1.00;99.90
9925;DHT22;5001;51.674;7.868;2024-01-07T05:45:25;1.00;99.90
9925;DHT22;5001;51.674;7.868;2024-01-07T05:47:53;0.90;99.90
9925;DHT22;5001;51.674;7.868;2024-01-07T05:50:20;0.90;99.90
9925;DHT22;5001;51.674;7.868;2024-01-07T05:52:47;0.90;99.90
9925;DHT22;5001;51.674;7.868;2024-01-07T05:55:14;0.90;99.90
9925;DHT22;5001;51.674;7.868;2024-01-07T05:57:43;0.90;99.90
9925;DHT22;5001;51.674;7.868;2024-01-07T06:00:10;0.90;99.90
9925;DHT22;5001;51.674;7.868;2024-01-07T06:02:40;1.00;99.90
9925;DHT22;5001;51.674;7.868;2024-01-07T06:05:08;0.90;99.90
9925;DHT22;5001;51.674;7.868;2024-01-07T06:07:35;0.90;99.90
9925;DHT22;5001;51.674;7.868;2024-01-07T06:10:02;0.90;99.90
9925;DHT22;5001;51.674;7.868;2024-01-07T06:12:29;0.90;99.90
9925;DHT22;5001;51.674;7.868;2024-01-07T06:14:56;0.90;99.90
9925;DHT22;5001;51.674;7.868;2024-01-07T06:17:23;0.90;99.90
9925;DHT22;5001;51.674;7.868;2024-01-07T06:19:50;0.90;99.90
9925;DHT22;5001;51.674;7.868;2024-01-07T06:22:17;0.80;99.90
9925;DHT22;5001;51.674;7.868;2024-01-07T06:24:45;0.80;99.90
9925;DHT22;5001;51.674;7.868;2024-01-07T06:27:12;0.80;99.90
9925;DHT22;5001;51.674;7.868;2024-01-07T06:29:40;0.80;99.90
9925;DHT22;5001;51.674;7.868;2024-01-07T06:32:07;0.80;99.90
9925;DHT22;5001;51.674;7.868;2024-01-07T06:34:34;0.80;99.90
9925;DHT22;5001;51.674;7.868;2024-01-07T06:37:01;0.80;99.90
9925;DHT22;5001;51.674;7.868;2024-01-07T06:39:28;0.70;99.90
9925;DHT22;5001;51.674;7.868;2024-01-07T06:41:55;0.60;99.90
9925;DHT22;5001;51.674;7.868;2024-01-07T06:44:22;0.60;99.90
9925;DHT22;5001;51.674;7.868;2024-01-07T06:46:49;0.50;99.90
9925;DHT22;5001;51.674;7.868;2024-01-07T06:49:16;0.40;99.90
9925;DHT22;5001;51.674;7.868;2024-01-07T06:51:43;0.30;99.90
9925;DHT22;5001;51.674;7.868;2024-01-07T06:54:10;0.20;99.90
9925;DHT22;5001;51.674;7.868;2024-01-07T06:56:41;0.10;99.90
9925;DHT22;5001;51.674;7.868;2024-01-07T06:59:07;0.10;99.90
9925;DHT22;5001;51.674;7.868;2024-01-07T07:01:34;0.20;99.90
9925;DHT22;5001;51.674;7.868;2024-01-07T07:04:02;0.20;99.90
9925;DHT22;5001;51.674;7.868;2024-01-07T07:06:29;0.20;99.90
9925;DHT22;5001;51.674;7.868;2024-01-07T07:08:56;0.00;99.90
9925;DHT22;5001;51.674;7.868;2024-01-07T07:11:23;-0.10;99.90
9925;DHT22;5001;51.674;7.868;2024-01-07T07:13:50;-0.10;99.90
9925;DHT22;5001;51.674;7.868;2024-01-07T07:16:17;0.00;99.90
9925;DHT22;5001;51.674;7.868;2024-01-07T07:18:44;0.00;99.90
9925;DHT22;5001;51.674;7.868;2024-01-07T07:21:11;0.00;99.90
9925;DHT22;5001;51.674;7.868;2024-01-07T07:23:38;0.00;99.90
9925;DHT22;5001;51.674;7.868;2024-01-07T07:26:05;0.00;99.90
9925;DHT22;5001;51.674;7.868;2024-01-07T07:28:34;0.00;99.90
9925;DHT22;5001;51.674;7.868;2024-01-07T07:31:00;0.10;99.90
9925;DHT22;5001;51.674;7.868;2024-01-07T07:33:27;0.10;99.90
9925;DHT22;5001;51.674;7.868;2024-01-07T07:35:55;0.10;99.90
9925;DHT22;5001;51.674;7.868;2024-01-07T07:38:21;0.10;99.90
9925;DHT22;5001;51.674;7.868;2024-01-07T07:40:49;0.10;99.90
9925;DHT22;5001;51.674;7.868;2024-01-07T07:43:20;0.10;99.90
9925;DHT22;5001;51.674;7.868;2024-01-07T07:45:50;0.10;99.90
9925;DHT22;5001;51.674;7.868;2024-01-07T07:48:19;0.10;99.90
9925;DHT22;5001;51.674;7.868;2024-01-07T07:50:46;0.10;99.90
9925;DHT22;5001;51.674;7.868;2024-01-07T07:53:13;0.20;99.90
9925;DHT22;5001;51.674;7.868;2024-01-07T07:55:40;0.20;99.90
9925;DHT22;5001;51.674;7.868;2024-01-07T07:58:07;0.20;99.90
9925;DHT22;5001;51.674;7.868;2024-01-07T08:00:35;0.10;99.90
9925;DHT22;5001;51.674;7.868;2024-01-07T08:03:02;0.10;99.90
9925;DHT22;5001;51.674;7.868;2024-01-07T08:05:29;0.10;99.90
9925;DHT22;5001;51.674;7.868;2024-01-07T08:07:57;0.10;99.90
9925;DHT22;5001;51.674;7.868;2024-01-07T08:10:23;0.10;99.90
9925;DHT22;5001;51.674;7.868;2024-01-07T08:12:50;0.20;99.90
9925;DHT22;5001;51.674;7.868;2024-01-07T08:15:17;0.20;99.90
9925;DHT22;5001;51.674;7.868;2024-01-07T08:17:44;0.10;99.90
9925;DHT22;5001;51.674;7.868;2024-01-07T08:20:12;0.10;99.90
9925;DHT22;5001;51.674;7.868;2024-01-07T08:22:39;0.10;99.90
9925;DHT22;5001;51.674;7.868;2024-01-07T08:25:06;0.10;99.90
9925;DHT22;5001;51.674;7.868;2024-01-07T08:27:33;0.10;99.90
9925;DHT22;5001;51.674;7.868;2024-01-07T08:30:01;0.10;99.90
9925;DHT22;5001;51.674;7.868;2024-01-07T08:32:28;0.10;99.90
9925;DHT22;5001;51.674;7.868;2024-01-07T08:34:56;0.10;99.90
9925;DHT22;5001;51.674;7.868;2024-01-07T08:37:23;0.10;99.90
9925;DHT22;5001;51.674;7.868;2024-01-07T08:39:50;0.10;99.90
9925;DHT22;5001;51.674;7.868;2024-01-07T08:42:17;0.10;99.90
9925;DHT22;5001;51.674;7.868;2024-01-07T08:44:44;0.10;99.90
9925;DHT22;5001;51.674;7.868;2024-01-07T08:47:11;0.10;99.90
9925;DHT22;5001;51.674;7.868;2024-01-07T08:49:38;0.20;99.90
9925;DHT22;5001;51.674;7.868;2024-01-07T08:52:05;0.20;99.90
9925;DHT22;5001;51.674;7.868;2024-01-07T08:54:32;0.10;99.90
9925;DHT22;5001;51.674;7.868;2024-01-07T08:57:00;0.10;99.90
9925;DHT22;5001;51.674;7.868;2024-01-07T08:59:27;0.20;99.90
9925;DHT22;5001;51.674;7.868;2024-01-07T09:01:54;0.20;99.90
9925;DHT22;5001;51.674;7.868;2024-01-07T09:04:21;0.10;99.90
9925;DHT22;5001;51.674;7.868;2024-01-07T09:06:48;0.10;99.90
9925;DHT22;5001;51.674;7.868;2024-01-07T09:09:15;0.00;99.90
9925;DHT22;5001;51.674;7.868;2024-01-07T09:11:42;0.00;99.90
9925;DHT22;5001;51.674;7.868;2024-01-07T09:14:11;0.00;99.90
9925;DHT22;5001;51.674;7.868;2024-01-07T09:16:38;0.10;99.90
9925;DHT22;5001;51.674;7.868;2024-01-07T09:19:05;0.10;99.90
9925;DHT22;5001;51.674;7.868;2024-01-07T09:21:32;0.20;99.90
9925;DHT22;5001;51.674;7.868;2024-01-07T09:24:00;0.20;99.90
9925;DHT22;5001;51.674;7.868;2024-01-07T09:26:27;0.20;99.90
9925;DHT22;5001;51.674;7.868;2024-01-07T09:28:56;0.20;99.90
9925;DHT22;5001;51.674;7.868;2024-01-07T09:31:23;0.20;99.90
9925;DHT22;5001;51.674;7.868;2024-01-07T09:33:50;0.20;99.90
9925;DHT22;5001;51.674;7.868;2024-01-07T09:36:17;0.30;99.90
9925;DHT22;5001;51.674;7.868;2024-01-07T09:38:55;0.30;99.90
9925;DHT22;5001;51.674;7.868;2024-01-07T09:41:29;0.20;99.90
9925;DHT22;5001;51.674;7.868;2024-01-07T09:43:58;0.30;99.90
9925;DHT22;5001;51.674;7.868;2024-01-07T09:46:26;0.30;99.90
9925;DHT22;5001;51.674;7.868;2024-01-07T09:48:55;0.50;99.90
9925;DHT22;5001;51.674;7.868;2024-01-07T09:51:35;0.60;99.90
9925;DHT22;5001;51.674;7.868;2024-01-07T09:54:08;0.50;99.90
9925;DHT22;5001;51.674;7.868;2024-01-07T09:56:50;0.40;99.90
9925;DHT22;5001;51.674;7.868;2024-01-07T09:59:29;0.20;99.90
9925;DHT22;5001;51.674;7.868;2024-01-07T10:01:57;0.20;99.90
9925;DHT22;5001;51.674;7.868;2024-01-07T10:04:25;0.30;99.90
9925;DHT22;5001;51.674;7.868;2024-01-07T10:06:53;0.20;99.90
9925;DHT22;5001;51.674;7.868;2024-01-07T10:09:28;0.10;99.90
9925;DHT22;5001;51.674;7.868;2024-01-07T10:12:01;0.20;99.90
9925;DHT22;5001;51.674;7.868;2024-01-07T10:14:35;0.20;99.90
9925;DHT22;5001;51.674;7.868;2024-01-07T10:17:16;0.30;99.90
9925;DHT22;5001;51.674;7.868;2024-01-07T10:19:45;0.30;99.90
9925;DHT22;5001;51.674;7.868;2024-01-07T10:22:15;0.30;99.90
9925;DHT22;5001;51.674;7.868;2024-01-07T10:24:57;0.30;99.90
9925;DHT22;5001;51.674;7.868;2024-01-07T10:27:25;0.20;99.90
9925;DHT22;5001;51.674;7.868;2024-01-07T10:29:58;0.40;99.90
9925;DHT22;5001;51.674;7.868;2024-01-07T10:32:26;0.40;99.90
9925;DHT22;5001;51.674;7.868;2024-01-07T10:35:01;0.60;99.90
9925;DHT22;5001;51.674;7.868;2024-01-07T10:37:32;0.60;99.90
9925;DHT22;5001;51.674;7.868;2024-01-07T10:39:59;1.10;99.90
9925;DHT22;5001;51.674;7.868;2024-01-07T10:42:32;1.80;99.90
9925;DHT22;5001;51.674;7.868;2024-01-07T10:45:00;1.50;99.90
9925;DHT22;5001;51.674;7.868;2024-01-07T10:47:30;1.10;99.90
9925;DHT22;5001;51.674;7.868;2024-01-07T10:49:59;0.60;99.90
9925;DHT22;5001;51.674;7.868;2024-01-07T10:52:27;0.20;99.90
9925;DHT22;5001;51.674;7.868;2024-01-07T10:55:03;0.20;99.90
9925;DHT22;5001;51.674;7.868;2024-01-07T11:00:11;0.00;99.90
9925;DHT22;5001;51.674;7.868;2024-01-07T11:04:04;0.00;99.90
9925;DHT22;5001;51.674;7.868;2024-01-07T11:06:11;0.00;99.90
9925;DHT22;5001;51.674;7.868;2024-01-07T11:11:50;-0.10;99.90
9925;DHT22;5001;51.674;7.868;2024-01-07T11:14:43;0.10;99.90
9925;DHT22;5001;51.674;7.868;2024-01-07T11:20:05;0.20;99.90
9925;DHT22;5001;51.674;7.868;2024-01-07T11:22:33;0.30;99.90
9925;DHT22;5001;51.674;7.868;2024-01-07T11:25:00;0.30;99.90
9925;DHT22;5001;51.674;7.868;2024-01-07T11:27:30;0.40;99.90
9925;DHT22;5001;51.674;7.868;2024-01-07T11:30:18;0.40;99.90
9925;DHT22;5001;51.674;7.868;2024-01-07T11:32:47;0.20;99.90
9925;DHT22;5001;51.674;7.868;2024-01-07T11:35:45;0.00;99.90
9925;DHT22;5001;51.674;7.868;2024-01-07T11:38:09;0.20;99.90
9925;DHT22;5001;51.674;7.868;2024-01-07T11:40:36;0.30;99.90
9925;DHT22;5001;51.674;7.868;2024-01-07T11:43:03;0.10;99.90
9925;DHT22;5001;51.674;7.868;2024-01-07T11:45:35;0.20;99.90
9925;DHT22;5001;51.674;7.868;2024-01-07T11:48:04;0.20;99.90
9925;DHT22;5001;51.674;7.868;2024-01-07T11:50:40;0.20;99.90
9925;DHT22;5001;51.674;7.868;2024-01-07T11:53:11;1.20;99.90
9925;DHT22;5001;51.674;7.868;2024-01-07T11:55:38;0.80;99.90
9925;DHT22;5001;51.674;7.868;2024-01-07T11:58:08;0.40;99.90
9925;DHT22;5001;51.674;7.868;2024-01-07T12:00:41;0.20;99.90
9925;DHT22;5001;51.674;7.868;2024-01-07T12:03:10;0.10;99.90
9925;DHT22;5001;51.674;7.868;2024-01-07T12:05:41;0.00;99.90
9925;DHT22;5001;51.674;7.868;2024-01-07T12:08:10;0.10;99.90
9925;DHT22;5001;51.674;7.868;2024-01-07T12:10:37;0.10;99.90
9925;DHT22;5001;51.674;7.868;2024-01-07T12:13:04;0.00;99.90
9925;DHT22;5001;51.674;7.868;2024-01-07T12:15:32;0.00;99.90
9925;DHT22;5001;51.674;7.868;2024-01-07T12:18:01;0.00;99.90
9925;DHT22;5001;51.674;7.868;2024-01-07T12:20:29;0.00;99.90
9925;DHT22;5001;51.674;7.868;2024-01-07T12:23:07;0.00;99.90
9925;DHT22;5001;51.674;7.868;2024-01-07T12:25:35;0.00;99.90
9925;DHT22;5001;51.674;7.868;2024-01-07T12:28:06;-0.10;99.90
9925;DHT22;5001;51.674;7.868;2024-01-07T12:30:33;0.10;99.90
9925;DHT22;5001;51.674;7.868;2024-01-07T12:33:04;0.10;99.90
9925;DHT22;5001;51.674;7.868;2024-01-07T12:35:32;0.40;99.90
9925;DHT22;5001;51.674;7.868;2024-01-07T12:42:03;0.70;99.90
9925;DHT22;5001;51.674;7.868;2024-01-07T12:44:33;1.10;99.90
9925;DHT22;5001;51.674;7.868;2024-01-07T12:47:03;1.10;99.90
9925;DHT22;5001;51.674;7.868;2024-01-07T12:49:30;1.20;99.90
9925;DHT22;5001;51.674;7.868;2024-01-07T12:51:57;1.00;99.90
9925;DHT22;5001;51.674;7.868;2024-01-07T12:54:27;1.00;99.90
9925;DHT22;5001;51.674;7.868;2024-01-07T12:56:57;0.70;99.90
9925;DHT22;5001;51.674;7.868;2024-01-07T12:59:27;0.70;99.90
9925;DHT22;5001;51.674;7.868;2024-01-07T13:01:54;1.00;99.90
9925;DHT22;5001;51.674;7.868;2024-01-07T13:04:21;0.70;99.90
9925;DHT22;5001;51.674;7.868;2024-01-07T13:06:52;0.60;99.90
9925;DHT22;5001;51.674;7.868;2024-01-07T13:09:20;0.70;99.90
9925;DHT22;5001;51.674;7.868;2024-01-07T13:11:49;0.80;99.90
9925;DHT22;5001;51.674;7.868;2024-01-07T13:14:17;0.80;99.90
9925;DHT22;5001;51.674;7.868;2024-01-07T13:16:52;0.50;99.90
9925;DHT22;5001;51.674;7.868;2024-01-07T13:19:20;0.30;99.90
9925;DHT22;5001;51.674;7.868;2024-01-07T13:21:48;0.30;99.90
9925;DHT22;5001;51.674;7.868;2024-01-07T13:24:18;0.40;99.90
9925;DHT22;5001;51.674;7.868;2024-01-07T13:26:46;0.50;99.90
9925;DHT22;5001;51.674;7.868;2024-01-07T13:29:13;0.40;99.90
9925;DHT22;5001;51.674;7.868;2024-01-07T13:31:40;0.30;99.90
9925;DHT22;5001;51.674;7.868;2024-01-07T13:34:07;0.30;99.90
9925;DHT22;5001;51.674;7.868;2024-01-07T13:36:35;0.20;99.90
9925;DHT22;5001;51.674;7.868;2024-01-07T13:39:02;0.20;99.90
9925;DHT22;5001;51.674;7.868;2024-01-07T13:41:29;0.20;99.90
9925;DHT22;5001;51.674;7.868;2024-01-07T13:44:01;0.20;99.90
9925;DHT22;5001;51.674;7.868;2024-01-07T13:46:30;0.20;99.90
9925;DHT22;5001;51.674;7.868;2024-01-07T13:48:59;0.20;99.90
9925;DHT22;5001;51.674;7.868;2024-01-07T13:51:30;0.20;99.90
9925;DHT22;5001;51.674;7.868;2024-01-07T13:53:57;0.20;99.90
9925;DHT22;5001;51.674;7.868;2024-01-07T13:56:24;0.30;99.90
9925;DHT22;5001;51.674;7.868;2024-01-07T13:58:54;0.30;99.90
9925;DHT22;5001;51.674;7.868;2024-01-07T14:01:23;0.30;99.90
9925;DHT22;5001;51.674;7.868;2024-01-07T14:03:51;0.30;99.90
9925;DHT22;5001;51.674;7.868;2024-01-07T14:06:21;0.30;99.90
9925;DHT22;5001;51.674;7.868;2024-01-07T14:08:50;0.40;99.90
9925;DHT22;5001;51.674;7.868;2024-01-07T14:11:19;0.30;99.90
9925;DHT22;5001;51.674;7.868;2024-01-07T14:13:46;0.30;99.90
9925;DHT22;5001;51.674;7.868;2024-01-07T14:16:14;0.30;99.90
9925;DHT22;5001;51.674;7.868;2024-01-07T14:18:41;0.20;99.90
9925;DHT22;5001;51.674;7.868;2024-01-07T14:21:11;0.20;99.90
9925;DHT22;5001;51.674;7.868;2024-01-07T14:23:41;0.20;99.90
9925;DHT22;5001;51.674;7.868;2024-01-07T14:26:11;0.20;99.90
9925;DHT22;5001;51.674;7.868;2024-01-07T14:28:38;0.20;99.90
9925;DHT22;5001;51.674;7.868;2024-01-07T14:31:05;0.30;99.90
9925;DHT22;5001;51.674;7.868;2024-01-07T14:33:37;0.30;99.90
9925;DHT22;5001;51.674;7.868;2024-01-07T14:36:04;0.30;99.90
9925;DHT22;5001;51.674;7.868;2024-01-07T14:38:31;0.30;99.90
9925;DHT22;5001;51.674;7.868;2024-01-07T14:41:02;0.20;99.90
9925;DHT22;5001;51.674;7.868;2024-01-07T14:43:29;0.20;99.90
9925;DHT22;5001;51.674;7.868;2024-01-07T14:45:56;0.20;99.90
9925;DHT22;5001;51.674;7.868;2024-01-07T14:48:30;0.20;99.90
9925;DHT22;5001;51.674;7.868;2024-01-07T14:51:00;0.20;99.90
9925;DHT22;5001;51.674;7.868;2024-01-07T14:53:29;0.20;99.90
9925;DHT22;5001;51.674;7.868;2024-01-07T14:55:56;0.20;99.90
9925;DHT22;5001;51.674;7.868;2024-01-07T14:58:25;0.20;99.90
9925;DHT22;5001;51.674;7.868;2024-01-07T15:00:52;0.20;99.90
9925;DHT22;5001;51.674;7.868;2024-01-07T15:03:19;0.20;99.90
9925;DHT22;5001;51.674;7.868;2024-01-07T15:05:49;0.20;99.90
9925;DHT22;5001;51.674;7.868;2024-01-07T15:08:16;0.20;99.90
9925;DHT22;5001;51.674;7.868;2024-01-07T15:10:44;0.20;99.90
9925;DHT22;5001;51.674;7.868;2024-01-07T15:13:11;0.20;99.90
9925;DHT22;5001;51.674;7.868;2024-01-07T15:15:46;0.20;99.90
9925;DHT22;5001;51.674;7.868;2024-01-07T15:18:14;0.20;99.90
9925;DHT22;5001;51.674;7.868;2024-01-07T15:20:41;0.20;99.90
9925;DHT22;5001;51.674;7.868;2024-01-07T15:23:08;0.20;99.90
9925;DHT22;5001;51.674;7.868;2024-01-07T15:25:38;0.20;99.90
9925;DHT22;5001;51.674;7.868;2024-01-07T15:28:05;0.10;99.90
9925;DHT22;5001;51.674;7.868;2024-01-07T15:30:33;0.20;99.90
9925;DHT22;5001;51.674;7.868;2024-01-07T15:33:00;0.20;99.90
9925;DHT22;5001;51.674;7.868;2024-01-07T15:35:27;0.20;99.90
9925;DHT22;5001;51.674;7.868;2024-01-07T15:38:03;0.20;99.90
9925;DHT22;5001;51.674;7.868;2024-01-07T15:40:30;0.10;99.90
9925;DHT22;5001;51.674;7.868;2024-01-07T15:42:58;0.20;99.90
9925;DHT22;5001;51.674;7.868;2024-01-07T15:45:26;0.20;99.90
9925;DHT22;5001;51.674;7.868;2024-01-07T15:47:56;0.20;99.90
9925;DHT22;5001;51.674;7.868;2024-01-07T15:50:25;0.20;99.90
9925;DHT22;5001;51.674;7.868;2024-01-07T15:52:56;0.20;99.90
9925;DHT22;5001;51.674;7.868;2024-01-07T15:55:38;0.10;99.90
9925;DHT22;5001;51.674;7.868;2024-01-07T15:58:06;0.10;99.90
9925;DHT22;5001;51.674;7.868;2024-01-07T16:00:33;0.20;99.90
9925;DHT22;5001;51.674;7.868;2024-01-07T16:03:00;0.10;99.90
9925;DHT22;5001;51.674;7.868;2024-01-07T16:05:28;0.20;99.90
9925;DHT22;5001;51.674;7.868;2024-01-07T16:08:05;0.20;99.90
9925;DHT22;5001;51.674;7.868;2024-01-07T16:10:32;0.20;99.90
9925;DHT22;5001;51.674;7.868;2024-01-07T16:12:59;0.20;99.90
9925;DHT22;5001;51.674;7.868;2024-01-07T16:15:31;0.20;99.90
9925;DHT22;5001;51.674;7.868;2024-01-07T16:17:59;0.20;99.90
9925;DHT22;5001;51.674;7.868;2024-01-07T16:20:26;0.20;99.90
9925;DHT22;5001;51.674;7.868;2024-01-07T16:22:58;0.20;99.90
9925;DHT22;5001;51.674;7.868;2024-01-07T16:25:25;0.20;99.90
9925;DHT22;5001;51.674;7.868;2024-01-07T16:27:52;0.20;99.90
9925;DHT22;5001;51.674;7.868;2024-01-07T16:30:20;0.20;99.90
9925;DHT22;5001;51.674;7.868;2024-01-07T16:32:47;0.10;99.90
9925;DHT22;5001;51.674;7.868;2024-01-07T16:35:16;0.10;99.90
9925;DHT22;5001;51.674;7.868;2024-01-07T16:37:43;0.10;99.90
9925;DHT22;5001;51.674;7.868;2024-01-07T16:40:10;0.10;99.90
9925;DHT22;5001;51.674;7.868;2024-01-07T16:42:39;0.10;99.90